createdAt,value
2023-04-12T00:00:17.838Z,9.35
2023-04-12T00:01:41.498Z,9.33
2023-04-12T00:02:45.492Z,9.33
2023-04-12T00:03:51.159Z,9.37
2023-04-12T00:04:57.601Z,9.36
2023-04-12T00:06:03.566Z,9.37
2023-04-12T00:07:06.694Z,9.38
2023-04-12T00:08:10.892Z,9.37
2023-04-12T00:09:14.596Z,9.36
2023-04-12T00:10:17.532Z,9.39
2023-04-12T00:11:20.895Z,9.40
2023-04-12T00:12:24.152Z,9.36
2023-04-12T00:13:27.034Z,9.38
2023-04-12T00:14:30.037Z,9.37
2023-04-12T00:15:32.940Z,9.37
2023-04-12T00:16:37.166Z,9.37
2023-04-12T00:17:40.357Z,9.40
2023-04-12T00:18:45.891Z,9.37
2023-04-12T00:19:50.178Z,9.39
2023-04-12T00:20:53.364Z,9.37
2023-04-12T00:21:56.665Z,9.34
2023-04-12T00:22:59.494Z,9.32
2023-04-12T00:24:02.424Z,9.32
2023-04-12T00:25:06.698Z,9.27
2023-04-12T00:26:09.612Z,9.27
2023-04-12T00:27:13.318Z,9.23
2023-04-12T00:28:16.348Z,9.21
2023-04-12T00:29:19.742Z,9.21
2023-04-12T00:30:24.010Z,9.17
2023-04-12T00:31:27.003Z,9.15
2023-04-12T00:32:30.002Z,9.16
2023-04-12T00:33:34.346Z,9.11
2023-04-12T00:34:37.181Z,9.10
2023-04-12T00:35:40.060Z,9.07
2023-04-12T00:36:43.350Z,9.04
2023-04-12T00:37:46.554Z,9.02
2023-04-12T00:38:49.445Z,9.05
2023-04-12T00:39:52.796Z,9.02
2023-04-12T00:40:55.950Z,9.03
2023-04-12T00:42:03.563Z,9.02
2023-04-12T00:43:06.538Z,9.02
2023-04-12T00:44:10.148Z,9.01
2023-04-12T00:45:14.465Z,9.03
2023-04-12T00:46:20.008Z,9.02
2023-04-12T00:47:23.075Z,8.98
2023-04-12T00:48:28.986Z,9.00
2023-04-12T00:49:34.372Z,8.97
2023-04-12T00:50:37.419Z,8.99
2023-04-12T00:51:40.626Z,8.96
2023-04-12T00:52:43.529Z,8.97
2023-04-12T00:53:46.511Z,8.93
2023-04-12T00:54:50.015Z,8.93
2023-04-12T00:55:53.301Z,8.94
2023-04-12T00:56:59.986Z,8.89
2023-04-12T00:58:03.651Z,8.88
2023-04-12T00:59:06.748Z,8.87
2023-04-12T01:00:13.879Z,8.85
2023-04-12T01:01:17.376Z,8.79
2023-04-12T01:02:20.559Z,8.78
2023-04-12T01:03:24.224Z,8.74
2023-04-12T01:04:28.904Z,8.73
2023-04-12T01:05:36.359Z,8.70
2023-04-12T01:07:05.304Z,8.69
2023-04-12T01:08:34.243Z,8.62
2023-04-12T01:10:05.024Z,8.57
2023-04-12T01:11:40.007Z,8.53
2023-04-12T01:13:07.645Z,8.50
2023-04-12T01:14:34.167Z,8.46
2023-04-12T01:15:45.670Z,8.45
2023-04-12T01:16:51.327Z,8.46
2023-04-12T01:18:00.034Z,8.44
2023-04-12T01:19:13.751Z,8.46
2023-04-12T01:20:23.579Z,8.47
2023-04-12T01:21:31.339Z,8.43
2023-04-12T01:22:53.498Z,8.44
2023-04-12T01:24:14.111Z,8.39
2023-04-12T01:25:39.943Z,8.37
2023-04-12T01:26:48.533Z,8.37
2023-04-12T01:27:57.044Z,8.37
2023-04-12T01:29:03.172Z,8.41
2023-04-12T01:30:08.380Z,8.42
2023-04-12T01:31:14.022Z,8.41
2023-04-12T01:32:18.470Z,8.40
2023-04-12T01:33:22.234Z,8.42
2023-04-12T01:34:28.493Z,8.40
2023-04-12T01:35:34.638Z,8.39
2023-04-12T01:36:40.064Z,8.41
2023-04-12T01:37:43.988Z,8.41
2023-04-12T01:38:47.064Z,8.43
2023-04-12T01:39:50.564Z,8.40
2023-04-12T01:40:55.039Z,8.43
2023-04-12T01:41:57.921Z,8.41
2023-04-12T01:43:05.339Z,8.41
2023-04-12T01:44:08.596Z,8.43
2023-04-12T01:45:11.865Z,8.45
2023-04-12T01:46:22.799Z,8.44
2023-04-12T01:47:27.203Z,8.46
2023-04-12T01:48:30.254Z,8.46
2023-04-12T01:49:45.123Z,8.47
2023-04-12T01:51:06.498Z,8.46
2023-04-12T01:52:18.948Z,8.45
2023-04-12T01:53:48.881Z,8.48
2023-04-12T01:54:57.491Z,8.45
2023-04-12T01:56:07.417Z,8.49
2023-04-12T01:57:11.086Z,8.48
2023-04-12T01:58:17.401Z,8.49
2023-04-12T01:59:24.371Z,8.46
2023-04-12T02:00:28.164Z,8.47
2023-04-12T02:01:31.574Z,8.50
2023-04-12T02:02:36.650Z,8.48
2023-04-12T02:03:43.175Z,8.48
2023-04-12T02:04:47.743Z,8.50
2023-04-12T02:05:52.313Z,8.48
2023-04-12T02:06:57.409Z,8.50
2023-04-12T02:08:02.943Z,8.51
2023-04-12T02:09:06.625Z,8.51
2023-04-12T02:10:14.777Z,8.50
2023-04-12T02:11:17.678Z,8.50
2023-04-12T02:12:20.834Z,8.51
2023-04-12T02:13:23.830Z,8.49
2023-04-12T02:14:27.190Z,8.52
2023-04-12T02:15:30.886Z,8.50
2023-04-12T02:16:35.951Z,8.55
2023-04-12T02:17:41.061Z,8.55
2023-04-12T02:18:44.920Z,8.55
2023-04-12T02:19:50.466Z,8.52
2023-04-12T02:20:55.703Z,8.55
2023-04-12T02:21:58.592Z,8.53
2023-04-12T02:23:01.578Z,8.57
2023-04-12T02:24:04.748Z,8.53
2023-04-12T02:25:08.008Z,8.56
2023-04-12T02:26:11.654Z,8.53
2023-04-12T02:27:14.563Z,8.55
2023-04-12T02:28:17.450Z,8.54
2023-04-12T02:29:20.328Z,8.54
2023-04-12T02:30:23.932Z,8.55
2023-04-12T02:31:30.639Z,8.57
2023-04-12T02:32:33.591Z,8.54
2023-04-12T02:33:37.181Z,8.55
2023-04-12T02:34:44.198Z,8.55
2023-04-12T02:35:52.572Z,8.55
2023-04-12T02:36:56.069Z,8.51
2023-04-12T02:37:58.984Z,8.50
2023-04-12T02:39:05.354Z,8.53
2023-04-12T02:40:11.612Z,8.53
2023-04-12T02:41:19.060Z,8.53
2023-04-12T02:42:21.965Z,8.52
2023-04-12T02:43:25.551Z,8.49
2023-04-12T02:44:34.728Z,8.52
2023-04-12T02:45:47.688Z,8.49
2023-04-12T02:46:50.827Z,8.48
2023-04-12T02:47:55.893Z,8.48
2023-04-12T02:49:01.702Z,8.52
2023-04-12T02:50:09.427Z,8.53
2023-04-12T02:51:21.157Z,8.50
2023-04-12T02:52:25.764Z,8.53
2023-04-12T02:53:42.420Z,8.49
2023-04-12T02:54:57.368Z,8.48
2023-04-12T02:56:01.359Z,8.53
2023-04-12T02:57:05.414Z,8.51
2023-04-12T02:58:11.195Z,8.56
2023-04-12T02:59:18.744Z,8.55
2023-04-12T03:00:39.489Z,8.53
2023-04-12T03:01:46.940Z,8.55
2023-04-12T03:02:59.119Z,8.54
2023-04-12T03:04:04.231Z,8.58
2023-04-12T03:05:27.678Z,8.53
2023-04-12T03:06:32.119Z,8.57
2023-04-12T03:07:38.804Z,8.55
2023-04-12T03:08:42.148Z,8.58
2023-04-12T03:09:47.004Z,8.55
2023-04-12T03:10:56.169Z,8.60
2023-04-12T03:11:59.834Z,8.60
2023-04-12T03:13:05.002Z,8.56
2023-04-12T03:14:17.456Z,8.53
2023-04-12T03:15:23.507Z,8.57
2023-04-12T03:16:29.743Z,8.57
2023-04-12T03:17:41.227Z,8.57
2023-04-12T03:18:44.507Z,8.55
2023-04-12T03:19:49.259Z,8.55
2023-04-12T03:20:56.358Z,8.57
2023-04-12T03:22:00.065Z,8.54
2023-04-12T03:23:03.261Z,8.54
2023-04-12T03:24:07.336Z,8.54
2023-04-12T03:25:12.746Z,8.54
2023-04-12T03:26:20.633Z,8.57
2023-04-12T03:27:32.982Z,8.55
2023-04-12T03:28:36.293Z,8.56
2023-04-12T03:29:42.327Z,8.55
2023-04-12T03:30:46.163Z,8.56
2023-04-12T03:31:49.438Z,8.56
2023-04-12T03:32:52.407Z,8.56
2023-04-12T03:33:56.069Z,8.57
2023-04-12T03:35:00.424Z,8.57
2023-04-12T03:36:04.549Z,8.57
2023-04-12T03:37:07.578Z,8.59
2023-04-12T03:38:15.459Z,8.59
2023-04-12T03:39:18.930Z,8.58
2023-04-12T03:40:25.136Z,8.62
2023-04-12T03:41:33.789Z,8.59
2023-04-12T03:42:39.700Z,8.62
2023-04-12T03:43:50.444Z,8.62
2023-04-12T03:44:54.973Z,8.58
2023-04-12T03:45:58.545Z,8.58
2023-04-12T03:47:01.793Z,8.61
2023-04-12T03:48:12.009Z,8.58
2023-04-12T03:49:18.686Z,8.61
2023-04-12T03:50:23.317Z,8.59
2023-04-12T03:51:31.325Z,8.57
2023-04-12T03:52:40.348Z,8.58
2023-04-12T03:53:43.548Z,8.57
2023-04-12T03:54:50.258Z,8.58
2023-04-12T03:56:00.813Z,8.59
2023-04-12T03:57:07.363Z,8.60
2023-04-12T03:58:31.186Z,8.56
2023-04-12T03:59:34.338Z,8.57
2023-04-12T04:00:37.650Z,8.58
2023-04-12T04:01:43.557Z,8.60
2023-04-12T04:02:47.452Z,8.59
2023-04-12T04:03:51.162Z,8.59
2023-04-12T04:05:04.102Z,8.61
2023-04-12T04:06:08.290Z,8.61
2023-04-12T04:07:12.961Z,8.62
2023-04-12T04:08:17.685Z,8.60
2023-04-12T04:09:29.573Z,8.64
2023-04-12T04:10:33.414Z,8.61
2023-04-12T04:11:37.835Z,8.62
2023-04-12T04:12:42.334Z,8.65
2023-04-12T04:13:47.210Z,8.65
2023-04-12T04:14:54.372Z,8.65
2023-04-12T04:16:10.312Z,8.63
2023-04-12T04:17:14.941Z,8.67
2023-04-12T04:18:18.020Z,8.70
2023-04-12T04:19:21.707Z,8.68
2023-04-12T04:20:26.038Z,8.69
2023-04-12T04:21:30.802Z,8.72
2023-04-12T04:22:34.695Z,8.69
2023-04-12T04:23:38.988Z,8.68
2023-04-12T04:24:42.768Z,8.70
2023-04-12T04:25:46.391Z,8.70
2023-04-12T04:26:50.443Z,8.70
2023-04-12T04:28:02.858Z,8.72
2023-04-12T04:29:06.531Z,8.70
2023-04-12T04:30:15.360Z,8.70
2023-04-12T04:31:22.793Z,8.73
2023-04-12T04:32:26.494Z,8.73
2023-04-12T04:33:33.753Z,8.73
2023-04-12T04:34:37.657Z,8.73
2023-04-12T04:35:45.910Z,8.73
2023-04-12T04:37:02.783Z,8.68
2023-04-12T04:38:05.793Z,8.73
2023-04-12T04:39:10.064Z,8.72
2023-04-12T04:40:21.453Z,8.76
2023-04-12T04:41:26.418Z,8.77
2023-04-12T04:42:33.014Z,8.78
2023-04-12T04:43:46.882Z,8.79
2023-04-12T04:45:02.631Z,8.79
2023-04-12T04:46:07.300Z,8.74
2023-04-12T04:47:10.539Z,8.76
2023-04-12T04:48:13.475Z,8.77
2023-04-12T04:49:16.506Z,8.78
2023-04-12T04:50:24.157Z,8.80
2023-04-12T04:51:27.704Z,8.84
2023-04-12T04:52:31.058Z,8.82
2023-04-12T04:53:38.484Z,8.84
2023-04-12T04:54:41.807Z,8.84
2023-04-12T04:55:44.920Z,8.84
2023-04-12T04:56:47.795Z,8.85
2023-04-12T04:57:52.484Z,8.85
2023-04-12T04:58:57.017Z,8.86
2023-04-12T05:00:00.931Z,8.89
2023-04-12T05:01:05.300Z,8.86
2023-04-12T05:02:08.793Z,8.85
2023-04-12T05:03:12.070Z,8.89
2023-04-12T05:04:15.519Z,8.91
2023-04-12T05:05:18.558Z,8.90
2023-04-12T05:06:22.526Z,8.90
2023-04-12T05:07:26.252Z,8.93
2023-04-12T05:08:29.413Z,8.95
2023-04-12T05:09:32.305Z,8.97
2023-04-12T05:10:35.741Z,8.99
2023-04-12T05:11:39.057Z,8.97
2023-04-12T05:12:45.929Z,9.01
2023-04-12T05:13:50.319Z,9.00
2023-04-12T05:14:58.218Z,9.01
2023-04-12T05:16:12.410Z,9.00
2023-04-12T05:17:16.056Z,9.05
2023-04-12T05:18:22.003Z,9.04
2023-04-12T05:19:26.248Z,9.03
2023-04-12T05:20:29.801Z,9.06
2023-04-12T05:21:33.892Z,9.05
2023-04-12T05:22:36.783Z,9.07
2023-04-12T05:23:44.749Z,9.08
2023-04-12T05:24:48.651Z,9.08
2023-04-12T05:25:51.548Z,9.09
2023-04-12T05:26:54.710Z,9.09
2023-04-12T05:27:57.670Z,9.11
2023-04-12T05:29:01.793Z,9.12
2023-04-12T05:30:05.691Z,9.14
2023-04-12T05:31:09.596Z,9.15
2023-04-12T05:32:14.106Z,9.17
2023-04-12T05:33:17.305Z,9.18
2023-04-12T05:34:22.084Z,9.20
2023-04-12T05:35:31.547Z,9.22
2023-04-12T05:36:35.480Z,9.23
2023-04-12T05:37:39.452Z,9.24
2023-04-12T05:38:43.486Z,9.25
2023-04-12T05:39:48.356Z,9.26
2023-04-12T05:40:54.290Z,9.24
2023-04-12T05:41:59.533Z,9.23
2023-04-12T05:43:03.686Z,9.24
2023-04-12T05:44:07.627Z,9.25
2023-04-12T05:45:12.194Z,9.23
2023-04-12T05:46:16.124Z,9.25
2023-04-12T05:47:20.112Z,9.27
2023-04-12T05:48:23.593Z,9.24
2023-04-12T05:49:30.634Z,9.25
2023-04-12T05:50:34.533Z,9.29
2023-04-12T05:51:41.271Z,9.27
2023-04-12T05:52:51.070Z,9.32
2023-04-12T05:53:55.150Z,9.34
2023-04-12T05:54:58.507Z,9.33
2023-04-12T05:56:02.151Z,9.38
2023-04-12T05:57:05.710Z,9.37
2023-04-12T05:58:09.008Z,9.42
2023-04-12T05:59:12.514Z,9.42
2023-04-12T06:00:18.983Z,9.38
2023-04-12T06:01:22.041Z,9.37
2023-04-12T06:02:26.335Z,9.39
2023-04-12T06:03:31.377Z,9.43
2023-04-12T06:04:50.380Z,9.42
2023-04-12T06:05:54.259Z,9.43
2023-04-12T06:06:57.838Z,9.45
2023-04-12T06:08:01.003Z,9.44
2023-04-12T06:09:05.040Z,9.48
2023-04-12T06:10:10.071Z,9.48
2023-04-12T06:11:13.301Z,9.51
2023-04-12T06:12:18.214Z,9.54
2023-04-12T06:13:21.594Z,9.55
2023-04-12T06:14:24.658Z,9.59
2023-04-12T06:15:27.702Z,9.61
2023-04-12T06:16:30.841Z,9.63
2023-04-12T06:17:34.680Z,9.66
2023-04-12T06:18:38.243Z,9.69
2023-04-12T06:19:41.516Z,9.72
2023-04-12T06:20:45.698Z,9.71
2023-04-12T06:21:49.058Z,9.75
2023-04-12T06:22:51.931Z,9.72
2023-04-12T06:23:54.885Z,9.70
2023-04-12T06:24:58.752Z,9.69
2023-04-12T06:26:01.702Z,9.69
2023-04-12T06:27:05.055Z,9.74
2023-04-12T06:28:08.248Z,9.71
2023-04-12T06:29:18.515Z,9.76
2023-04-12T06:30:22.476Z,9.73
2023-04-12T06:31:28.499Z,9.74
2023-04-12T06:32:32.373Z,9.74
2023-04-12T06:33:36.889Z,9.74
2023-04-12T06:34:43.562Z,9.77
2023-04-12T06:35:50.606Z,9.77
2023-04-12T06:36:53.620Z,9.74
2023-04-12T06:37:56.529Z,9.72
2023-04-12T06:38:59.667Z,9.74
2023-04-12T06:40:02.500Z,9.72
2023-04-12T06:41:06.305Z,9.74
2023-04-12T06:42:09.188Z,9.73
2023-04-12T06:43:19.228Z,9.71
2023-04-12T06:44:22.143Z,9.71
2023-04-12T06:45:25.090Z,9.72
2023-04-12T06:46:28.903Z,9.72
2023-04-12T06:47:32.876Z,9.77
2023-04-12T06:48:35.889Z,9.74
2023-04-12T06:49:39.690Z,9.75
2023-04-12T06:50:42.545Z,9.74
2023-04-12T06:51:46.007Z,9.74
2023-04-12T06:52:48.984Z,9.74
2023-04-12T06:53:51.805Z,9.75
2023-04-12T06:54:56.998Z,9.77
2023-04-12T06:56:04.207Z,9.81
2023-04-12T06:57:13.901Z,9.83
2023-04-12T06:58:16.837Z,9.85
2023-04-12T06:59:19.871Z,9.85
2023-04-12T07:00:23.045Z,9.88
2023-04-12T07:01:26.068Z,9.88
2023-04-12T07:02:29.178Z,9.85
2023-04-12T07:03:33.475Z,9.87
2023-04-12T07:04:36.718Z,9.89
2023-04-12T07:05:39.731Z,9.89
2023-04-12T07:06:42.763Z,9.87
2023-04-12T07:07:45.612Z,9.89
2023-04-12T07:08:48.491Z,9.89
2023-04-12T07:09:53.099Z,9.92
2023-04-12T07:10:56.130Z,9.90
2023-04-12T07:12:00.461Z,9.93
2023-04-12T07:13:07.185Z,9.94
2023-04-12T07:14:10.039Z,9.98
2023-04-12T07:15:12.914Z,10.01
2023-04-12T07:16:16.054Z,9.99
2023-04-12T07:17:19.115Z,9.98
2023-04-12T07:18:22.052Z,9.98
2023-04-12T07:19:24.931Z,9.96
2023-04-12T07:20:27.860Z,9.96
2023-04-12T07:21:30.785Z,9.97
2023-04-12T07:22:33.765Z,9.97
2023-04-12T07:23:36.621Z,9.99
2023-04-12T07:24:39.483Z,10.03
2023-04-12T07:25:42.486Z,10.05
2023-04-12T07:26:45.329Z,10.08
2023-04-12T07:27:49.914Z,10.11
2023-04-12T07:28:55.084Z,10.12
2023-04-12T07:29:58.874Z,10.13
2023-04-12T07:31:04.808Z,10.15
2023-04-12T07:32:09.098Z,10.16
2023-04-12T07:33:19.225Z,10.15
2023-04-12T07:34:24.426Z,10.18
2023-04-12T07:35:27.526Z,10.19
2023-04-12T07:36:31.444Z,10.21
2023-04-12T07:37:35.971Z,10.19
2023-04-12T07:38:38.970Z,10.21
2023-04-12T07:39:41.875Z,10.23
2023-04-12T07:40:45.146Z,10.25
2023-04-12T07:41:49.677Z,10.24
2023-04-12T07:42:52.528Z,10.25
2023-04-12T07:43:55.382Z,10.30
2023-04-12T07:44:58.296Z,10.30
2023-04-12T07:46:04.642Z,10.32
2023-04-12T07:47:07.569Z,10.35
2023-04-12T07:48:11.984Z,10.32
2023-04-12T07:49:14.888Z,10.36
2023-04-12T07:50:17.876Z,10.36
2023-04-12T07:51:20.764Z,10.36
2023-04-12T07:52:23.720Z,10.37
2023-04-12T07:53:28.733Z,10.37
2023-04-12T07:54:31.652Z,10.35
2023-04-12T07:55:34.480Z,10.35
2023-04-12T07:56:37.435Z,10.38
2023-04-12T07:57:41.162Z,10.36
2023-04-12T07:58:44.044Z,10.37
2023-04-12T07:59:47.053Z,10.37
2023-04-12T08:00:51.127Z,10.34
2023-04-12T08:01:54.055Z,10.33
2023-04-12T08:02:57.067Z,10.29
2023-04-12T08:04:00.519Z,10.30
2023-04-12T08:05:03.693Z,10.25
2023-04-12T08:06:07.906Z,10.25
2023-04-12T08:07:10.881Z,10.24
2023-04-12T08:08:13.743Z,10.27
2023-04-12T08:09:16.667Z,10.26
2023-04-12T08:10:19.917Z,10.24
2023-04-12T08:11:22.780Z,10.27
2023-04-12T08:12:26.261Z,10.26
2023-04-12T08:13:29.178Z,10.31
2023-04-12T08:14:32.015Z,10.33
2023-04-12T08:15:35.016Z,10.36
2023-04-12T08:16:37.912Z,10.34
2023-04-12T08:17:43.978Z,10.35
2023-04-12T08:18:46.999Z,10.36
2023-04-12T08:19:49.831Z,10.43
2023-04-12T08:20:52.755Z,10.41
2023-04-12T08:21:55.735Z,10.44
2023-04-12T08:22:58.904Z,10.46
2023-04-12T08:24:01.861Z,10.50
2023-04-12T08:25:05.036Z,10.52
2023-04-12T08:26:07.871Z,10.53
2023-04-12T08:27:13.912Z,10.50
2023-04-12T08:28:17.002Z,10.55
2023-04-12T08:29:19.891Z,10.57
2023-04-12T08:30:26.871Z,10.56
2023-04-12T08:31:29.958Z,10.58
2023-04-12T08:32:32.954Z,10.56
2023-04-12T08:33:35.899Z,10.55
2023-04-12T08:34:39.687Z,10.57
2023-04-12T08:35:42.548Z,10.55
2023-04-12T08:36:45.916Z,10.58
2023-04-12T08:37:49.268Z,10.57
2023-04-12T08:38:53.231Z,10.56
2023-04-12T08:39:56.232Z,10.54
2023-04-12T08:40:59.360Z,10.55
2023-04-12T08:42:04.965Z,10.54
2023-04-12T08:43:11.485Z,10.57
2023-04-12T08:44:15.639Z,10.63
2023-04-12T08:45:18.534Z,10.64
2023-04-12T08:46:22.157Z,10.66
2023-04-12T08:47:25.097Z,10.70
2023-04-12T08:48:29.079Z,10.69
2023-04-12T08:49:33.276Z,10.69
2023-04-12T08:50:39.815Z,10.68
2023-04-12T08:51:43.420Z,10.68
2023-04-12T08:52:48.936Z,10.67
2023-04-12T08:53:54.172Z,10.70
2023-04-12T08:54:57.061Z,10.75
2023-04-12T08:56:00.246Z,10.77
2023-04-12T08:57:08.293Z,10.86
2023-04-12T08:58:14.536Z,10.89
2023-04-12T08:59:17.800Z,10.98
2023-04-12T09:00:21.648Z,11.01
2023-04-12T09:01:25.114Z,11.15
2023-04-12T09:02:28.744Z,11.24
2023-04-12T09:03:33.705Z,11.39
2023-04-12T09:04:48.782Z,11.54
2023-04-12T09:05:51.775Z,11.66
2023-04-12T09:06:54.844Z,11.79
2023-04-12T09:07:58.702Z,11.95
2023-04-12T09:10:09.841Z,11.99
2023-04-12T09:11:30.929Z,11.99
2023-04-12T09:12:34.021Z,11.98
2023-04-12T09:13:37.255Z,11.99
2023-04-12T09:14:43.691Z,12.02
2023-04-12T09:15:50.822Z,12.02
2023-04-12T09:16:53.747Z,12.03
2023-04-12T09:18:06.182Z,12.04
2023-04-12T09:19:09.608Z,12.03
2023-04-12T09:20:12.529Z,12.06
2023-04-12T09:21:15.512Z,12.09
2023-04-12T09:22:18.802Z,12.14
2023-04-12T09:23:26.529Z,12.12
2023-04-12T09:24:29.978Z,12.05
2023-04-12T09:25:53.997Z,12.07
2023-04-12T09:27:05.076Z,12.05
2023-04-12T09:28:27.922Z,12.06
2023-04-12T09:29:31.556Z,12.06
2023-04-12T09:30:44.946Z,12.10
2023-04-12T09:32:04.850Z,12.09
2023-04-12T09:33:13.664Z,12.07
2023-04-12T09:34:16.572Z,12.05
2023-04-12T09:35:33.138Z,12.09
2023-04-12T09:36:40.125Z,12.06
2023-04-12T09:37:43.172Z,12.03
2023-04-12T09:39:04.258Z,12.04
2023-04-12T09:40:09.388Z,12.03
2023-04-12T09:41:20.240Z,12.05
2023-04-12T09:42:32.985Z,12.09
2023-04-12T09:43:38.694Z,12.10
2023-04-12T09:44:41.652Z,12.12
2023-04-12T09:45:44.645Z,12.08
2023-04-12T09:46:52.264Z,12.06
2023-04-12T09:47:55.533Z,12.00
2023-04-12T09:48:59.354Z,12.05
2023-04-12T09:50:04.688Z,12.12
2023-04-12T09:51:08.253Z,12.24
2023-04-12T09:52:12.870Z,12.42
2023-04-12T09:53:20.269Z,12.52
2023-04-12T09:54:24.022Z,12.54
2023-04-12T09:55:28.798Z,12.60
2023-04-12T09:56:33.948Z,12.62
2023-04-12T09:57:42.321Z,12.66
2023-04-12T09:58:46.969Z,12.62
2023-04-12T09:59:52.779Z,12.71
2023-04-12T10:00:59.805Z,12.81
2023-04-12T10:02:07.298Z,12.97
2023-04-12T10:03:10.622Z,13.24
2023-04-12T10:04:14.298Z,13.40
2023-04-12T10:05:19.674Z,13.57
2023-04-12T10:06:22.987Z,13.70
2023-04-12T10:07:27.342Z,13.79
2023-04-12T10:08:31.783Z,13.85
2023-04-12T10:09:37.735Z,13.91
2023-04-12T10:10:40.685Z,13.93
2023-04-12T10:11:45.452Z,14.02
2023-04-12T10:12:49.775Z,14.06
2023-04-12T10:13:52.777Z,14.10
2023-04-12T10:14:56.151Z,14.14
2023-04-12T10:16:00.457Z,14.24
2023-04-12T10:17:05.423Z,14.36
2023-04-12T10:18:11.379Z,14.42
2023-04-12T10:19:15.057Z,14.44
2023-04-12T10:20:19.785Z,14.46
2023-04-12T10:21:23.158Z,14.54
2023-04-12T10:22:26.793Z,14.51
2023-04-12T10:23:32.289Z,14.48
2023-04-12T10:24:35.246Z,14.43
2023-04-12T10:25:42.939Z,14.37
2023-04-12T10:26:46.025Z,14.33
2023-04-12T10:27:49.444Z,14.32
2023-04-12T10:29:27.107Z,14.27
2023-04-12T10:30:31.962Z,14.18
2023-04-12T10:31:35.209Z,14.09
2023-04-12T10:32:38.174Z,14.04
2023-04-12T10:33:42.989Z,14.02
2023-04-12T10:34:51.807Z,14.01
2023-04-12T10:36:00.702Z,14.00
2023-04-12T10:37:04.471Z,13.97
2023-04-12T10:38:07.331Z,13.99
2023-04-12T10:39:11.311Z,14.07
2023-04-12T10:40:19.260Z,14.10
2023-04-12T10:41:22.470Z,14.12
2023-04-12T10:42:29.610Z,14.12
2023-04-12T10:43:36.076Z,14.12
2023-04-12T10:44:38.961Z,14.12
2023-04-12T10:45:42.058Z,14.15
2023-04-12T10:46:44.909Z,14.20
2023-04-12T10:48:01.890Z,14.27
2023-04-12T10:49:09.825Z,14.30
2023-04-12T10:50:24.534Z,14.30
2023-04-12T10:51:28.641Z,14.29
2023-04-12T10:52:41.799Z,14.25
2023-04-12T10:53:46.869Z,14.25
2023-04-12T10:54:58.185Z,14.32
2023-04-12T10:56:01.272Z,14.39
2023-04-12T10:57:07.086Z,14.43
2023-04-12T10:58:48.966Z,14.41
2023-04-12T10:59:59.653Z,14.33
2023-04-12T11:01:11.764Z,14.25
2023-04-12T11:02:15.983Z,14.22
2023-04-12T11:03:23.419Z,14.22
2023-04-12T11:04:27.148Z,14.21
2023-04-12T11:06:19.925Z,14.23
2023-04-12T11:08:07.546Z,14.21
2023-04-12T11:09:28.640Z,14.20
2023-04-12T11:10:31.909Z,14.22
2023-04-12T11:11:35.249Z,14.26
2023-04-12T11:12:39.345Z,14.31
2023-04-12T11:13:42.652Z,14.39
2023-04-12T11:14:48.350Z,14.44
2023-04-12T11:15:57.024Z,14.49
2023-04-12T11:17:23.974Z,14.53
2023-04-12T11:18:28.053Z,14.59
2023-04-12T11:19:35.034Z,14.64
2023-04-12T11:20:39.736Z,14.71
2023-04-12T11:21:43.648Z,14.76
2023-04-12T11:22:46.626Z,14.83
2023-04-12T11:23:51.126Z,14.89
2023-04-12T11:24:56.719Z,14.98
2023-04-12T11:25:59.687Z,15.10
2023-04-12T11:27:03.279Z,15.23
2023-04-12T11:28:17.235Z,15.34
2023-04-12T11:29:24.630Z,15.43
2023-04-12T11:30:27.466Z,15.49
2023-04-12T11:31:30.309Z,15.50
2023-04-12T11:32:34.865Z,15.46
2023-04-12T11:33:40.094Z,15.44
2023-04-12T11:34:45.303Z,15.37
2023-04-12T11:35:48.682Z,15.29
2023-04-12T11:36:55.086Z,15.21
2023-04-12T11:37:58.511Z,15.09
2023-04-12T11:39:02.071Z,15.01
2023-04-12T11:40:05.867Z,14.97
2023-04-12T11:41:09.173Z,14.97
2023-04-12T11:42:16.372Z,14.88
2023-04-12T11:43:22.431Z,14.79
2023-04-12T11:44:25.741Z,14.69
2023-04-12T11:45:31.586Z,14.62
2023-04-12T11:46:35.678Z,14.59
2023-04-12T11:47:43.706Z,14.55
2023-04-12T11:48:47.195Z,14.50
2023-04-12T11:49:54.231Z,14.47
2023-04-12T11:51:10.161Z,14.42
2023-04-12T11:52:15.261Z,14.36
2023-04-12T11:53:19.569Z,14.33
2023-04-12T11:54:32.453Z,14.25
2023-04-12T11:55:35.655Z,14.21
2023-04-12T11:56:38.838Z,14.22
2023-04-12T11:57:41.743Z,14.27
2023-04-12T11:58:47.849Z,14.33
2023-04-12T11:59:50.841Z,14.38
2023-04-12T12:00:54.854Z,14.40
2023-04-12T12:01:58.790Z,14.46
2023-04-12T12:03:07.695Z,14.55
2023-04-12T12:04:11.808Z,14.71
2023-04-12T12:05:15.059Z,15.02
2023-04-12T12:06:19.876Z,15.29
2023-04-12T12:07:24.435Z,15.66
2023-04-12T12:08:27.760Z,15.86
2023-04-12T12:09:31.440Z,16.12
2023-04-12T12:10:55.506Z,16.39
2023-04-12T12:12:02.885Z,16.76
2023-04-12T12:13:12.765Z,17.04
2023-04-12T12:14:19.774Z,17.27
2023-04-12T12:15:22.591Z,17.47
2023-04-12T12:16:30.609Z,17.65
2023-04-12T12:17:38.682Z,17.83
2023-04-12T12:18:50.278Z,18.05
2023-04-12T12:19:58.254Z,18.34
2023-04-12T12:21:01.391Z,18.59
2023-04-12T12:22:14.356Z,18.73
2023-04-12T12:23:33.457Z,18.73
2023-04-12T12:24:39.750Z,18.54
2023-04-12T12:25:48.215Z,18.33
2023-04-12T12:26:51.243Z,18.16
2023-04-12T12:27:57.838Z,18.05
2023-04-12T12:29:01.261Z,17.92
2023-04-12T12:30:07.538Z,17.82
2023-04-12T12:31:11.437Z,17.80
2023-04-12T12:32:15.122Z,17.78
2023-04-12T12:33:24.821Z,17.73
2023-04-12T12:34:34.967Z,17.71
2023-04-12T12:35:38.118Z,17.69
2023-04-12T12:36:40.938Z,17.68
2023-04-12T12:37:56.097Z,17.72
2023-04-12T12:39:20.251Z,17.85
2023-04-12T12:40:32.618Z,18.11
2023-04-12T12:41:36.215Z,18.20
2023-04-12T12:42:56.346Z,18.06
2023-04-12T12:44:00.325Z,17.83
2023-04-12T12:45:04.837Z,17.63
2023-04-12T12:46:07.740Z,17.55
2023-04-12T12:47:14.534Z,17.55
2023-04-12T12:48:19.536Z,17.63
2023-04-12T12:49:22.534Z,17.82
2023-04-12T12:50:27.549Z,18.03
2023-04-12T12:51:31.573Z,18.25
2023-04-12T12:52:34.513Z,18.49
2023-04-12T12:53:38.435Z,18.63
2023-04-12T12:54:42.043Z,18.71
2023-04-12T12:55:44.966Z,18.67
2023-04-12T12:56:47.964Z,18.54
2023-04-12T12:58:07.371Z,18.35
2023-04-12T12:59:10.741Z,18.12
2023-04-12T13:00:15.410Z,17.94
2023-04-12T13:01:18.329Z,17.80
2023-04-12T13:02:21.398Z,17.59
2023-04-12T13:03:24.719Z,17.41
2023-04-12T13:04:28.225Z,17.26
2023-04-12T13:05:31.258Z,17.12
2023-04-12T13:06:34.093Z,16.99
2023-04-12T13:07:37.055Z,16.82
2023-04-12T13:08:39.956Z,16.70
2023-04-12T13:09:42.931Z,16.66
2023-04-12T13:10:45.838Z,16.64
2023-04-12T13:11:54.780Z,16.64
2023-04-12T13:12:58.846Z,16.57
2023-04-12T13:14:02.032Z,16.53
2023-04-12T13:15:18.121Z,16.54
2023-04-12T13:16:26.819Z,16.57
2023-04-12T13:17:31.291Z,16.62
2023-04-12T13:18:34.180Z,16.59
2023-04-12T13:19:37.362Z,16.50
2023-04-12T13:20:40.283Z,16.48
2023-04-12T13:21:43.150Z,16.47
2023-04-12T13:22:46.126Z,16.47
2023-04-12T13:23:49.019Z,16.49
2023-04-12T13:24:51.905Z,16.54
2023-04-12T13:25:54.794Z,16.62
2023-04-12T13:26:58.363Z,16.71
2023-04-12T13:28:01.222Z,16.79
2023-04-12T13:29:04.050Z,16.80
2023-04-12T13:30:07.588Z,16.81
2023-04-12T13:31:10.672Z,16.80
2023-04-12T13:32:14.288Z,16.77
2023-04-12T13:33:21.006Z,16.74
2023-04-12T13:34:25.049Z,16.72
2023-04-12T13:35:27.897Z,16.75
2023-04-12T13:36:31.140Z,16.83
2023-04-12T13:37:34.380Z,16.89
2023-04-12T13:38:37.224Z,16.95
2023-04-12T13:39:40.407Z,17.02
2023-04-12T13:40:43.317Z,17.08
2023-04-12T13:41:46.258Z,17.13
2023-04-12T13:42:49.114Z,17.15
2023-04-12T13:43:52.073Z,17.19
2023-04-12T13:44:54.970Z,17.22
2023-04-12T13:45:57.906Z,17.29
2023-04-12T13:47:00.981Z,17.39
2023-04-12T13:48:04.059Z,17.50
2023-04-12T13:49:07.057Z,17.58
2023-04-12T13:50:10.497Z,17.67
2023-04-12T13:51:13.377Z,17.74
2023-04-12T13:52:16.237Z,17.82
2023-04-12T13:53:19.085Z,17.86
2023-04-12T13:54:22.058Z,17.79
2023-04-12T13:55:25.001Z,17.69
2023-04-12T13:56:30.680Z,17.63
2023-04-12T13:57:35.072Z,17.58
2023-04-12T13:58:39.986Z,17.55
2023-04-12T13:59:43.018Z,17.51
2023-04-12T14:00:46.130Z,17.46
2023-04-12T14:01:49.214Z,17.41
2023-04-12T14:02:52.331Z,17.35
2023-04-12T14:03:55.883Z,17.32
2023-04-12T14:05:00.203Z,17.23
2023-04-12T14:06:03.399Z,17.11
2023-04-12T14:07:06.218Z,16.98
2023-04-12T14:08:09.027Z,16.83
2023-04-12T14:09:25.408Z,16.70
2023-04-12T14:10:28.391Z,16.57
2023-04-12T14:11:31.340Z,16.48
2023-04-12T14:12:34.150Z,16.41
2023-04-12T14:13:37.110Z,16.36
2023-04-12T14:14:40.549Z,16.30
2023-04-12T14:15:43.423Z,16.24
2023-04-12T14:16:46.741Z,16.17
2023-04-12T14:17:49.827Z,16.10
2023-04-12T14:18:52.816Z,16.06
2023-04-12T14:19:55.797Z,16.03
2023-04-12T14:20:59.381Z,16.00
2023-04-12T14:22:02.647Z,15.95